Pontyberem, United Kingdom
Current Conditions -  °F | °C
As of 9:50 PM on Friday 19 Dec 2014 (Local Time) from EGOP Reporting Station
Clear Clear  
Wind Chill: 39°   Ceiling: Unl
Heat Index: 46°   Visibility: 6mi
Dew Point: 41°   Wind: 22mph
Humidity: 81%   Direction: 270°W
Pressure: 30.24"   Gusts: NA
Location:  51.78°N, 4.17°W
Report Text: EGOP 192150Z AUTO 27019KT 9999 // NCD 08/05 Q1024
Loading
Personal Weather Stations






























Interactive Weather Map New forecast layout! Learn more

10-Day Weather Forecast

Advertisements
Track Severe Weather on mobile